< Typhoon 199512 1995 Season Typhoon 199514 >
Typhoon 199513 (POLLY)
General InformationTrack Information on Google MapsDetailed Wind InformationList of All Images || NewsDisaster Info.ResourceGoogle EarthGE AnimationAtom FeedGeoJSON
Detalied Best Track (Time Zone = UTC)
Year Month Day Hour Lat. Long. Pressure (hPa) Wind (kt) Class Image Chart
1995 9 14 00 16.0 124.0 1000 0 2 Image Chart
1995 9 14 06 16.2 123.6 1000 0 2 Image Chart
1995 9 14 12 16.5 123.5 1000 0 2 Image Chart
1995 9 14 18 16.8 123.6 1000 0 2 Image Chart
1995 9 15 00 17.0 123.7 998 35 3 Image Chart
1995 9 15 06 17.3 124.5 998 35 3 Image Chart
1995 9 15 12 17.5 125.2 998 35 3 Image Chart
1995 9 15 18 17.8 126.1 998 35 3 Image Chart
1995 9 16 00 18.1 127.8 996 40 3 Image Chart
1995 9 16 06 18.5 129.4 996 40 3 Image Chart
1995 9 16 12 18.9 131.1 994 45 3 Image Chart
1995 9 16 18 19.3 133.2 992 45 3 Image Chart
1995 9 17 00 19.6 135.0 990 45 3 Image Chart
1995 9 17 06 19.3 136.7 985 50 4 Image Chart
1995 9 17 12 19.8 137.7 985 50 4 Image Chart
1995 9 17 18 20.3 138.2 980 55 4 Image Chart
1995 9 18 00 20.8 138.3 975 60 4 Image Chart
1995 9 18 06 21.8 138.1 975 60 4 Image Chart
1995 9 18 12 23.0 137.8 970 65 5 Image Chart
1995 9 18 18 24.1 137.8 965 70 5 Image Chart
1995 9 19 00 24.8 138.0 965 70 5 Image Chart
1995 9 19 06 25.6 138.8 960 75 5 Image Chart
1995 9 19 12 26.5 140.0 960 75 5 Image Chart
1995 9 19 15 27.3 140.7 960 75 5 Image Chart
1995 9 19 18 27.9 141.2 960 75 5 Image Chart
1995 9 19 21 28.4 141.8 960 75 5 Image Chart
1995 9 20 00 28.8 142.3 960 75 5 Image Chart
1995 9 20 06 29.8 143.9 965 70 5 Image Chart
1995 9 20 12 30.7 145.6 965 70 5 Image Chart
1995 9 20 18 31.9 147.6 970 65 5 Image Chart
1995 9 21 00 33.1 149.5 970 65 5 Image Chart
1995 9 21 06 34.6 152.1 975 60 4 Image Chart
1995 9 21 12 36.6 155.5 980 50 4 Image Chart
1995 9 21 18 39.1 159.2 986 0 6 Image Chart
1995 9 22 00 40.0 161.0 992 0 6 Image Chart
1995 9 22 06 41.0 163.5 992 0 6 Image Chart
1995 9 22 12 41.5 166.0 992 0 6 Image Chart
1995 9 22 18 42.0 169.0 996 0 6 Image Chart
1995 9 23 00 42.0 172.0 996 0 6 Image Chart
1995 9 23 06 42.0 175.0 994 0 6 Image Chart
1995 9 23 12 42.0 177.0 994 0 6 Image Chart
1995 9 23 18 42.0 180.0 994 0 6 Image Chart
1995 9 24 00 42.0 183.0 994 0 6 Image Chart
Japan Meteorological Agency Best Track Data | Correction Date : 1996-01-19
< Typhoon 199512 1995 Season Typhoon 199514 >

Help